sensor_id;sensor_type;location;lat;lon;timestamp;P1;durP1;ratioP1;P2;durP2;ratioP2
21630;SDS011;10977;46.802;11.952;2022-08-23T00:01:20;4.78;;;2.50;;
21630;SDS011;10977;46.802;11.952;2022-08-23T00:03:49;2.80;;;2.40;;
21630;SDS011;10977;46.802;11.952;2022-08-23T00:06:15;2.78;;;2.38;;
21630;SDS011;10977;46.802;11.952;2022-08-23T00:08:42;3.15;;;2.33;;
21630;SDS011;10977;46.802;11.952;2022-08-23T00:11:27;3.65;;;2.35;;
21630;SDS011;10977;46.802;11.952;2022-08-23T00:13:53;2.83;;;2.33;;
21630;SDS011;10977;46.802;11.952;2022-08-23T00:16:19;3.40;;;2.58;;
21630;SDS011;10977;46.802;11.952;2022-08-23T00:18:44;3.00;;;2.70;;
21630;SDS011;10977;46.802;11.952;2022-08-23T00:21:10;2.65;;;2.45;;
21630;SDS011;10977;46.802;11.952;2022-08-23T00:23:37;2.70;;;2.50;;
21630;SDS011;10977;46.802;11.952;2022-08-23T00:26:03;3.15;;;2.42;;
21630;SDS011;10977;46.802;11.952;2022-08-23T00:28:28;2.60;;;2.40;;
21630;SDS011;10977;46.802;11.952;2022-08-23T00:30:55;2.67;;;2.47;;
21630;SDS011;10977;46.802;11.952;2022-08-23T00:33:21;2.97;;;2.67;;
21630;SDS011;10977;46.802;11.952;2022-08-23T00:35:47;4.05;;;2.42;;
21630;SDS011;10977;46.802;11.952;2022-08-23T00:38:13;2.70;;;2.50;;
21630;SDS011;10977;46.802;11.952;2022-08-23T00:40:38;3.20;;;2.60;;
21630;SDS011;10977;46.802;11.952;2022-08-23T00:43:09;4.18;;;2.28;;
21630;SDS011;10977;46.802;11.952;2022-08-23T00:46:03;4.30;;;2.60;;
21630;SDS011;10977;46.802;11.952;2022-08-23T00:48:51;3.13;;;2.60;;
21630;SDS011;10977;46.802;11.952;2022-08-23T00:53:51;2.33;;;2.13;;
21630;SDS011;10977;46.802;11.952;2022-08-23T00:56:20;3.47;;;2.67;;
21630;SDS011;10977;46.802;11.952;2022-08-23T00:58:48;2.92;;;2.55;;
21630;SDS011;10977;46.802;11.952;2022-08-23T01:01:14;3.05;;;2.50;;
21630;SDS011;10977;46.802;11.952;2022-08-23T01:03:41;2.88;;;2.40;;
21630;SDS011;10977;46.802;11.952;2022-08-23T01:06:15;6.10;;;2.97;;
21630;SDS011;10977;46.802;11.952;2022-08-23T01:08:54;4.20;;;2.58;;
21630;SDS011;10977;46.802;11.952;2022-08-23T01:11:29;4.47;;;2.50;;
21630;SDS011;10977;46.802;11.952;2022-08-23T01:16:55;3.75;;;2.50;;
21630;SDS011;10977;46.802;11.952;2022-08-23T01:19:22;3.22;;;2.47;;
21630;SDS011;10977;46.802;11.952;2022-08-23T01:22:12;3.22;;;2.50;;
21630;SDS011;10977;46.802;11.952;2022-08-23T01:24:40;3.05;;;2.70;;
21630;SDS011;10977;46.802;11.952;2022-08-23T01:27:07;3.22;;;2.60;;
21630;SDS011;10977;46.802;11.952;2022-08-23T01:29:36;3.38;;;2.67;;
21630;SDS011;10977;46.802;11.952;2022-08-23T01:32:01;3.67;;;2.47;;
21630;SDS011;10977;46.802;11.952;2022-08-23T01:34:27;4.13;;;2.47;;
21630;SDS011;10977;46.802;11.952;2022-08-23T01:36:54;2.95;;;2.50;;
21630;SDS011;10977;46.802;11.952;2022-08-23T01:39:21;3.28;;;2.38;;
21630;SDS011;10977;46.802;11.952;2022-08-23T01:41:47;3.17;;;2.83;;
21630;SDS011;10977;46.802;11.952;2022-08-23T01:44:12;3.92;;;2.70;;
21630;SDS011;10977;46.802;11.952;2022-08-23T01:46:41;3.97;;;2.45;;
21630;SDS011;10977;46.802;11.952;2022-08-23T01:49:08;2.47;;;2.28;;
21630;SDS011;10977;46.802;11.952;2022-08-23T01:51:34;4.20;;;3.30;;
21630;SDS011;10977;46.802;11.952;2022-08-23T01:53:59;4.10;;;3.08;;
21630;SDS011;10977;46.802;11.952;2022-08-23T01:56:25;3.50;;;2.58;;
21630;SDS011;10977;46.802;11.952;2022-08-23T01:58:50;3.03;;;2.33;;
21630;SDS011;10977;46.802;11.952;2022-08-23T02:01:16;3.58;;;2.75;;
21630;SDS011;10977;46.802;11.952;2022-08-23T02:03:43;3.13;;;2.47;;
21630;SDS011;10977;46.802;11.952;2022-08-23T02:06:08;2.92;;;2.30;;
21630;SDS011;10977;46.802;11.952;2022-08-23T02:08:34;4.07;;;2.67;;
21630;SDS011;10977;46.802;11.952;2022-08-23T02:11:18;2.70;;;2.50;;
21630;SDS011;10977;46.802;11.952;2022-08-23T02:13:46;5.50;;;2.60;;
21630;SDS011;10977;46.802;11.952;2022-08-23T02:16:12;2.88;;;2.20;;
21630;SDS011;10977;46.802;11.952;2022-08-23T02:18:44;2.97;;;2.45;;
21630;SDS011;10977;46.802;11.952;2022-08-23T02:21:10;2.83;;;2.40;;
21630;SDS011;10977;46.802;11.952;2022-08-23T02:23:35;3.15;;;2.53;;
21630;SDS011;10977;46.802;11.952;2022-08-23T02:26:01;3.95;;;2.72;;
21630;SDS011;10977;46.802;11.952;2022-08-23T02:28:26;2.70;;;2.47;;
21630;SDS011;10977;46.802;11.952;2022-08-23T02:30:51;4.47;;;2.88;;
21630;SDS011;10977;46.802;11.952;2022-08-23T02:33:17;3.47;;;2.58;;
21630;SDS011;10977;46.802;11.952;2022-08-23T02:35:43;3.60;;;2.70;;
21630;SDS011;10977;46.802;11.952;2022-08-23T02:38:09;3.60;;;3.00;;
21630;SDS011;10977;46.802;11.952;2022-08-23T02:40:36;3.53;;;2.92;;
21630;SDS011;10977;46.802;11.952;2022-08-23T02:43:03;3.40;;;2.67;;
21630;SDS011;10977;46.802;11.952;2022-08-23T02:45:31;4.10;;;2.88;;
21630;SDS011;10977;46.802;11.952;2022-08-23T02:47:57;3.28;;;2.78;;
21630;SDS011;10977;46.802;11.952;2022-08-23T02:50:24;3.42;;;3.10;;
21630;SDS011;10977;46.802;11.952;2022-08-23T02:52:50;3.22;;;2.65;;
21630;SDS011;10977;46.802;11.952;2022-08-23T02:55:16;5.15;;;3.08;;
21630;SDS011;10977;46.802;11.952;2022-08-23T02:57:41;3.65;;;2.80;;
21630;SDS011;10977;46.802;11.952;2022-08-23T03:00:08;3.20;;;2.90;;
21630;SDS011;10977;46.802;11.952;2022-08-23T03:02:35;3.75;;;2.92;;
21630;SDS011;10977;46.802;11.952;2022-08-23T03:05:03;4.75;;;2.70;;
21630;SDS011;10977;46.802;11.952;2022-08-23T03:07:30;3.05;;;2.63;;
21630;SDS011;10977;46.802;11.952;2022-08-23T03:09:55;4.22;;;2.97;;
21630;SDS011;10977;46.802;11.952;2022-08-23T03:12:21;3.45;;;2.80;;
21630;SDS011;10977;46.802;11.952;2022-08-23T03:14:46;3.78;;;2.80;;
21630;SDS011;10977;46.802;11.952;2022-08-23T03:17:12;3.88;;;3.10;;
21630;SDS011;10977;46.802;11.952;2022-08-23T03:19:37;2.70;;;2.50;;
21630;SDS011;10977;46.802;11.952;2022-08-23T03:22:03;3.10;;;2.72;;
21630;SDS011;10977;46.802;11.952;2022-08-23T03:24:28;2.63;;;2.42;;
21630;SDS011;10977;46.802;11.952;2022-08-23T03:26:54;3.03;;;2.72;;
21630;SDS011;10977;46.802;11.952;2022-08-23T03:29:19;4.75;;;2.30;;
21630;SDS011;10977;46.802;11.952;2022-08-23T03:31:45;5.20;;;3.22;;
21630;SDS011;10977;46.802;11.952;2022-08-23T03:34:10;3.75;;;2.97;;
21630;SDS011;10977;46.802;11.952;2022-08-23T03:36:37;3.63;;;2.83;;
21630;SDS011;10977;46.802;11.952;2022-08-23T03:39:03;2.53;;;2.30;;
21630;SDS011;10977;46.802;11.952;2022-08-23T03:41:30;3.17;;;2.88;;
21630;SDS011;10977;46.802;11.952;2022-08-23T03:43:55;7.20;;;2.80;;
21630;SDS011;10977;46.802;11.952;2022-08-23T03:46:21;2.92;;;2.63;;
21630;SDS011;10977;46.802;11.952;2022-08-23T03:48:53;4.40;;;2.90;;
21630;SDS011;10977;46.802;11.952;2022-08-23T03:51:21;5.20;;;3.60;;
21630;SDS011;10977;46.802;11.952;2022-08-23T03:53:47;3.10;;;2.80;;
21630;SDS011;10977;46.802;11.952;2022-08-23T03:56:20;2.97;;;2.65;;
21630;SDS011;10977;46.802;11.952;2022-08-23T03:58:50;4.72;;;3.13;;
21630;SDS011;10977;46.802;11.952;2022-08-23T04:01:17;4.43;;;2.85;;
21630;SDS011;10977;46.802;11.952;2022-08-23T04:03:42;3.88;;;3.35;;
21630;SDS011;10977;46.802;11.952;2022-08-23T04:06:08;2.53;;;2.33;;
21630;SDS011;10977;46.802;11.952;2022-08-23T04:08:35;3.85;;;2.67;;
21630;SDS011;10977;46.802;11.952;2022-08-23T04:11:01;2.90;;;2.60;;
21630;SDS011;10977;46.802;11.952;2022-08-23T04:13:27;2.63;;;2.42;;
21630;SDS011;10977;46.802;11.952;2022-08-23T04:15:53;2.70;;;2.50;;
21630;SDS011;10977;46.802;11.952;2022-08-23T04:18:19;2.92;;;2.63;;
21630;SDS011;10977;46.802;11.952;2022-08-23T04:20:45;4.72;;;2.70;;
21630;SDS011;10977;46.802;11.952;2022-08-23T04:23:11;4.43;;;2.97;;
21630;SDS011;10977;46.802;11.952;2022-08-23T04:25:37;3.58;;;2.92;;
21630;SDS011;10977;46.802;11.952;2022-08-23T04:28:03;4.25;;;3.10;;
21630;SDS011;10977;46.802;11.952;2022-08-23T04:30:30;3.50;;;2.63;;
21630;SDS011;10977;46.802;11.952;2022-08-23T04:32:56;5.43;;;3.17;;
21630;SDS011;10977;46.802;11.952;2022-08-23T04:35:22;4.80;;;2.67;;
21630;SDS011;10977;46.802;11.952;2022-08-23T04:37:49;3.53;;;2.95;;
21630;SDS011;10977;46.802;11.952;2022-08-23T04:40:15;5.28;;;3.85;;
21630;SDS011;10977;46.802;11.952;2022-08-23T04:42:59;4.43;;;3.20;;
21630;SDS011;10977;46.802;11.952;2022-08-23T04:45:25;3.55;;;2.95;;
21630;SDS011;10977;46.802;11.952;2022-08-23T04:47:51;3.47;;;3.05;;
21630;SDS011;10977;46.802;11.952;2022-08-23T04:50:17;3.67;;;2.92;;
21630;SDS011;10977;46.802;11.952;2022-08-23T04:52:43;3.65;;;2.83;;
21630;SDS011;10977;46.802;11.952;2022-08-23T04:55:09;3.40;;;3.10;;
21630;SDS011;10977;46.802;11.952;2022-08-23T04:57:34;4.28;;;2.80;;
21630;SDS011;10977;46.802;11.952;2022-08-23T05:00:00;3.75;;;3.17;;
21630;SDS011;10977;46.802;11.952;2022-08-23T05:02:25;3.22;;;2.92;;
21630;SDS011;10977;46.802;11.952;2022-08-23T05:04:51;6.20;;;3.78;;
21630;SDS011;10977;46.802;11.952;2022-08-23T05:07:18;3.45;;;3.10;;
21630;SDS011;10977;46.802;11.952;2022-08-23T05:09:43;3.95;;;3.17;;
21630;SDS011;10977;46.802;11.952;2022-08-23T05:12:08;4.05;;;3.28;;
21630;SDS011;10977;46.802;11.952;2022-08-23T05:14:34;5.35;;;3.50;;
21630;SDS011;10977;46.802;11.952;2022-08-23T05:17:00;5.47;;;3.30;;
21630;SDS011;10977;46.802;11.952;2022-08-23T05:19:26;3.58;;;3.28;;
21630;SDS011;10977;46.802;11.952;2022-08-23T05:21:51;5.28;;;3.15;;
21630;SDS011;10977;46.802;11.952;2022-08-23T05:24:17;17.35;;;11.07;;
21630;SDS011;10977;46.802;11.952;2022-08-23T05:26:42;5.22;;;4.05;;
21630;SDS011;10977;46.802;11.952;2022-08-23T05:29:07;4.97;;;3.80;;
21630;SDS011;10977;46.802;11.952;2022-08-23T05:31:33;4.90;;;3.55;;
21630;SDS011;10977;46.802;11.952;2022-08-23T05:33:58;5.80;;;3.63;;
21630;SDS011;10977;46.802;11.952;2022-08-23T05:36:24;4.40;;;3.17;;
21630;SDS011;10977;46.802;11.952;2022-08-23T05:38:50;6.93;;;3.72;;
21630;SDS011;10977;46.802;11.952;2022-08-23T05:41:17;7.55;;;3.38;;
21630;SDS011;10977;46.802;11.952;2022-08-23T05:43:44;4.05;;;3.25;;
21630;SDS011;10977;46.802;11.952;2022-08-23T05:46:11;3.85;;;3.30;;
21630;SDS011;10977;46.802;11.952;2022-08-23T05:48:39;5.57;;;3.42;;
21630;SDS011;10977;46.802;11.952;2022-08-23T05:51:15;4.30;;;3.20;;
21630;SDS011;10977;46.802;11.952;2022-08-23T05:53:47;4.70;;;3.40;;
21630;SDS011;10977;46.802;11.952;2022-08-23T05:56:18;3.83;;;3.30;;
21630;SDS011;10977;46.802;11.952;2022-08-23T05:58:53;4.15;;;3.30;;
21630;SDS011;10977;46.802;11.952;2022-08-23T06:01:22;4.28;;;3.33;;
21630;SDS011;10977;46.802;11.952;2022-08-23T06:03:48;3.72;;;3.40;;
21630;SDS011;10977;46.802;11.952;2022-08-23T06:06:14;5.90;;;3.83;;
21630;SDS011;10977;46.802;11.952;2022-08-23T06:08:40;5.82;;;4.00;;
21630;SDS011;10977;46.802;11.952;2022-08-23T06:13:51;4.47;;;3.50;;
21630;SDS011;10977;46.802;11.952;2022-08-23T06:16:19;4.55;;;3.40;;
21630;SDS011;10977;46.802;11.952;2022-08-23T06:18:50;6.88;;;3.80;;
21630;SDS011;10977;46.802;11.952;2022-08-23T06:21:17;10.07;;;4.32;;
21630;SDS011;10977;46.802;11.952;2022-08-23T06:23:43;4.47;;;3.65;;
21630;SDS011;10977;46.802;11.952;2022-08-23T06:26:14;5.72;;;3.90;;
21630;SDS011;10977;46.802;11.952;2022-08-23T06:28:47;7.38;;;4.00;;
21630;SDS011;10977;46.802;11.952;2022-08-23T06:31:14;8.13;;;3.70;;
21630;SDS011;10977;46.802;11.952;2022-08-23T06:33:41;7.70;;;3.60;;
21630;SDS011;10977;46.802;11.952;2022-08-23T06:36:11;6.90;;;4.15;;
21630;SDS011;10977;46.802;11.952;2022-08-23T06:38:38;4.30;;;3.38;;
21630;SDS011;10977;46.802;11.952;2022-08-23T06:41:06;5.72;;;3.50;;
21630;SDS011;10977;46.802;11.952;2022-08-23T06:43:34;5.03;;;3.88;;
21630;SDS011;10977;46.802;11.952;2022-08-23T06:46:10;3.85;;;3.20;;
21630;SDS011;10977;46.802;11.952;2022-08-23T06:48:36;6.68;;;3.80;;
21630;SDS011;10977;46.802;11.952;2022-08-23T06:51:02;3.60;;;3.22;;
21630;SDS011;10977;46.802;11.952;2022-08-23T06:53:33;4.70;;;3.40;;
21630;SDS011;10977;46.802;11.952;2022-08-23T06:55:58;4.85;;;3.50;;
21630;SDS011;10977;46.802;11.952;2022-08-23T06:58:23;6.10;;;4.53;;
21630;SDS011;10977;46.802;11.952;2022-08-23T07:00:49;7.45;;;3.78;;
21630;SDS011;10977;46.802;11.952;2022-08-23T07:03:15;6.43;;;3.67;;
21630;SDS011;10977;46.802;11.952;2022-08-23T07:05:40;7.20;;;4.15;;
21630;SDS011;10977;46.802;11.952;2022-08-23T07:08:06;5.53;;;3.70;;
21630;SDS011;10977;46.802;11.952;2022-08-23T07:10:32;5.65;;;3.60;;
21630;SDS011;10977;46.802;11.952;2022-08-23T07:12:58;6.20;;;3.30;;
21630;SDS011;10977;46.802;11.952;2022-08-23T07:15:23;6.10;;;3.85;;
21630;SDS011;10977;46.802;11.952;2022-08-23T07:17:49;4.53;;;3.58;;
21630;SDS011;10977;46.802;11.952;2022-08-23T07:20:14;4.90;;;3.60;;
21630;SDS011;10977;46.802;11.952;2022-08-23T07:22:40;5.00;;;3.17;;
21630;SDS011;10977;46.802;11.952;2022-08-23T07:25:05;5.20;;;3.45;;
21630;SDS011;10977;46.802;11.952;2022-08-23T07:27:31;4.30;;;3.40;;
21630;SDS011;10977;46.802;11.952;2022-08-23T07:29:56;5.10;;;3.45;;
21630;SDS011;10977;46.802;11.952;2022-08-23T07:32:21;6.18;;;3.42;;
21630;SDS011;10977;46.802;11.952;2022-08-23T07:34:47;3.88;;;3.40;;
21630;SDS011;10977;46.802;11.952;2022-08-23T07:37:12;3.78;;;3.05;;
21630;SDS011;10977;46.802;11.952;2022-08-23T07:39:38;5.00;;;3.50;;
21630;SDS011;10977;46.802;11.952;2022-08-23T07:42:03;5.40;;;3.15;;
21630;SDS011;10977;46.802;11.952;2022-08-23T07:44:29;4.50;;;3.60;;
21630;SDS011;10977;46.802;11.952;2022-08-23T07:46:55;4.65;;;3.35;;
21630;SDS011;10977;46.802;11.952;2022-08-23T07:49:20;8.88;;;4.32;;
21630;SDS011;10977;46.802;11.952;2022-08-23T07:51:48;8.32;;;4.43;;
21630;SDS011;10977;46.802;11.952;2022-08-23T07:54:15;4.78;;;4.10;;
21630;SDS011;10977;46.802;11.952;2022-08-23T07:56:42;5.90;;;3.92;;
21630;SDS011;10977;46.802;11.952;2022-08-23T07:59:08;7.82;;;4.38;;
21630;SDS011;10977;46.802;11.952;2022-08-23T08:01:34;8.32;;;4.45;;
21630;SDS011;10977;46.802;11.952;2022-08-23T08:04:00;7.78;;;4.07;;
21630;SDS011;10977;46.802;11.952;2022-08-23T08:08:57;5.68;;;3.80;;
21630;SDS011;10977;46.802;11.952;2022-08-23T08:11:23;6.80;;;3.72;;
21630;SDS011;10977;46.802;11.952;2022-08-23T08:13:51;7.05;;;4.53;;
21630;SDS011;10977;46.802;11.952;2022-08-23T08:16:25;6.13;;;4.00;;
21630;SDS011;10977;46.802;11.952;2022-08-23T08:18:57;4.05;;;3.42;;
21630;SDS011;10977;46.802;11.952;2022-08-23T08:21:23;5.45;;;3.58;;
21630;SDS011;10977;46.802;11.952;2022-08-23T08:23:49;7.72;;;4.05;;
21630;SDS011;10977;46.802;11.952;2022-08-23T08:26:15;8.50;;;3.80;;
21630;SDS011;10977;46.802;11.952;2022-08-23T08:28:40;5.88;;;3.72;;
21630;SDS011;10977;46.802;11.952;2022-08-23T08:31:06;5.40;;;3.55;;
21630;SDS011;10977;46.802;11.952;2022-08-23T08:33:33;7.57;;;4.03;;
21630;SDS011;10977;46.802;11.952;2022-08-23T08:35:59;7.45;;;3.80;;
21630;SDS011;10977;46.802;11.952;2022-08-23T08:38:24;4.63;;;3.88;;
21630;SDS011;10977;46.802;11.952;2022-08-23T08:41:24;6.53;;;4.00;;
21630;SDS011;10977;46.802;11.952;2022-08-23T08:46:22;5.85;;;3.60;;
21630;SDS011;10977;46.802;11.952;2022-08-23T08:48:54;4.10;;;3.58;;
21630;SDS011;10977;46.802;11.952;2022-08-23T08:54:09;5.40;;;3.40;;
21630;SDS011;10977;46.802;11.952;2022-08-23T08:56:40;4.90;;;3.20;;
21630;SDS011;10977;46.802;11.952;2022-08-23T08:59:12;4.07;;;3.65;;
21630;SDS011;10977;46.802;11.952;2022-08-23T09:01:43;5.43;;;3.33;;
21630;SDS011;10977;46.802;11.952;2022-08-23T09:04:08;6.18;;;2.92;;
21630;SDS011;10977;46.802;11.952;2022-08-23T09:12:19;6.38;;;3.00;;
21630;SDS011;10977;46.802;11.952;2022-08-23T09:20:09;4.55;;;2.60;;
21630;SDS011;10977;46.802;11.952;2022-08-23T09:22:39;4.25;;;2.67;;
21630;SDS011;10977;46.802;11.952;2022-08-23T09:25:07;5.65;;;2.40;;
21630;SDS011;10977;46.802;11.952;2022-08-23T09:27:35;2.90;;;2.03;;
21630;SDS011;10977;46.802;11.952;2022-08-23T09:30:08;6.32;;;3.35;;
21630;SDS011;10977;46.802;11.952;2022-08-23T09:32:37;2.58;;;2.10;;
21630;SDS011;10977;46.802;11.952;2022-08-23T09:35:13;2.50;;;2.30;;
21630;SDS011;10977;46.802;11.952;2022-08-23T09:37:52;3.75;;;2.47;;
21630;SDS011;10977;46.802;11.952;2022-08-23T09:40:27;2.78;;;2.30;;
21630;SDS011;10977;46.802;11.952;2022-08-23T09:43:01;2.45;;;2.25;;
21630;SDS011;10977;46.802;11.952;2022-08-23T09:45:29;3.58;;;2.25;;
21630;SDS011;10977;46.802;11.952;2022-08-23T09:48:00;3.78;;;2.88;;
21630;SDS011;10977;46.802;11.952;2022-08-23T09:50:26;2.58;;;2.33;;
21630;SDS011;10977;46.802;11.952;2022-08-23T09:52:58;6.28;;;2.40;;
21630;SDS011;10977;46.802;11.952;2022-08-23T09:55:31;3.00;;;2.70;;
21630;SDS011;10977;46.802;11.952;2022-08-23T09:58:05;3.30;;;2.97;;
21630;SDS011;10977;46.802;11.952;2022-08-23T10:00:40;2.95;;;2.65;;
21630;SDS011;10977;46.802;11.952;2022-08-23T10:03:26;3.08;;;2.50;;
21630;SDS011;10977;46.802;11.952;2022-08-23T10:05:54;3.60;;;2.75;;
21630;SDS011;10977;46.802;11.952;2022-08-23T10:08:25;3.85;;;2.63;;
21630;SDS011;10977;46.802;11.952;2022-08-23T10:10:55;3.35;;;3.05;;
21630;SDS011;10977;46.802;11.952;2022-08-23T10:13:26;2.83;;;2.45;;
21630;SDS011;10977;46.802;11.952;2022-08-23T10:16:02;5.78;;;2.90;;
21630;SDS011;10977;46.802;11.952;2022-08-23T10:21:32;4.30;;;3.10;;
21630;SDS011;10977;46.802;11.952;2022-08-23T10:27:04;4.40;;;2.97;;
21630;SDS011;10977;46.802;11.952;2022-08-23T10:30:07;3.13;;;2.75;;
21630;SDS011;10977;46.802;11.952;2022-08-23T10:32:42;4.38;;;2.70;;
21630;SDS011;10977;46.802;11.952;2022-08-23T10:35:31;2.83;;;2.35;;
21630;SDS011;10977;46.802;11.952;2022-08-23T10:38:10;3.92;;;2.65;;
21630;SDS011;10977;46.802;11.952;2022-08-23T10:40:58;6.55;;;2.70;;
21630;SDS011;10977;46.802;11.952;2022-08-23T10:46:01;2.75;;;2.55;;
21630;SDS011;10977;46.802;11.952;2022-08-23T10:48:28;5.70;;;2.90;;
21630;SDS011;10977;46.802;11.952;2022-08-23T10:50:59;2.53;;;2.33;;
21630;SDS011;10977;46.802;11.952;2022-08-23T10:53:36;6.15;;;2.83;;
21630;SDS011;10977;46.802;11.952;2022-08-23T10:56:10;16.08;;;11.43;;
21630;SDS011;10977;46.802;11.952;2022-08-23T11:12:30;2.53;;;1.73;;
21630;SDS011;10977;46.802;11.952;2022-08-23T11:28:47;1.60;;;1.00;;
21630;SDS011;10977;46.802;11.952;2022-08-23T11:31:33;1.90;;;1.40;;
21630;SDS011;10977;46.802;11.952;2022-08-23T11:51:04;1.15;;;0.50;;
21630;SDS011;10977;46.802;11.952;2022-08-23T12:01:33;0.80;;;0.43;;
21630;SDS011;10977;46.802;11.952;2022-08-23T12:04:44;1.63;;;0.50;;
21630;SDS011;10977;46.802;11.952;2022-08-23T12:06:53;0.90;;;0.40;;
21630;SDS011;10977;46.802;11.952;2022-08-23T12:16:57;0.65;;;0.50;;
21630;SDS011;10977;46.802;11.952;2022-08-23T12:19:30;0.68;;;0.50;;
21630;SDS011;10977;46.802;11.952;2022-08-23T12:22:05;0.38;;;0.30;;
21630;SDS011;10977;46.802;11.952;2022-08-23T12:24:42;0.70;;;0.35;;
21630;SDS011;10977;46.802;11.952;2022-08-23T12:27:22;0.57;;;0.40;;
21630;SDS011;10977;46.802;11.952;2022-08-23T12:32:32;0.57;;;0.45;;
21630;SDS011;10977;46.802;11.952;2022-08-23T12:35:10;0.63;;;0.50;;
21630;SDS011;10977;46.802;11.952;2022-08-23T12:40:31;0.40;;;0.30;;
21630;SDS011;10977;46.802;11.952;2022-08-23T12:43:08;0.82;;;0.45;;
21630;SDS011;10977;46.802;11.952;2022-08-23T12:45:41;1.10;;;0.50;;
21630;SDS011;10977;46.802;11.952;2022-08-23T12:48:14;0.80;;;0.50;;
21630;SDS011;10977;46.802;11.952;2022-08-23T12:50:44;0.85;;;0.40;;
21630;SDS011;10977;46.802;11.952;2022-08-23T12:53:23;1.52;;;0.60;;
21630;SDS011;10977;46.802;11.952;2022-08-23T12:55:58;0.75;;;0.40;;
21630;SDS011;10977;46.802;11.952;2022-08-23T12:58:27;0.40;;;0.40;;
21630;SDS011;10977;46.802;11.952;2022-08-23T13:00:57;0.82;;;0.50;;
21630;SDS011;10977;46.802;11.952;2022-08-23T13:06:04;0.57;;;0.50;;
21630;SDS011;10977;46.802;11.952;2022-08-23T13:08:36;0.50;;;0.45;;
21630;SDS011;10977;46.802;11.952;2022-08-23T13:11:03;0.70;;;0.70;;
21630;SDS011;10977;46.802;11.952;2022-08-23T13:13:31;0.73;;;0.52;;
21630;SDS011;10977;46.802;11.952;2022-08-23T13:15:58;2.38;;;0.47;;
21630;SDS011;10977;46.802;11.952;2022-08-23T13:18:27;1.00;;;0.70;;
21630;SDS011;10977;46.802;11.952;2022-08-23T13:21:18;0.98;;;0.50;;
21630;SDS011;10977;46.802;11.952;2022-08-23T13:23:58;0.60;;;0.60;;
21630;SDS011;10977;46.802;11.952;2022-08-23T13:26:36;1.63;;;0.60;;
21630;SDS011;10977;46.802;11.952;2022-08-23T13:29:05;1.02;;;0.70;;
21630;SDS011;10977;46.802;11.952;2022-08-23T13:34:36;3.58;;;0.85;;
21630;SDS011;10977;46.802;11.952;2022-08-23T13:39:52;1.02;;;0.80;;
21630;SDS011;10977;46.802;11.952;2022-08-23T13:42:42;1.20;;;0.68;;
21630;SDS011;10977;46.802;11.952;2022-08-23T13:45:24;1.95;;;0.90;;
21630;SDS011;10977;46.802;11.952;2022-08-23T13:47:55;0.95;;;0.93;;
21630;SDS011;10977;46.802;11.952;2022-08-23T13:50:26;2.70;;;0.68;;
21630;SDS011;10977;46.802;11.952;2022-08-23T13:52:56;1.52;;;0.70;;
21630;SDS011;10977;46.802;11.952;2022-08-23T13:55:21;0.75;;;0.70;;
21630;SDS011;10977;46.802;11.952;2022-08-23T13:57:48;1.00;;;0.90;;
21630;SDS011;10977;46.802;11.952;2022-08-23T14:00:13;1.10;;;1.00;;
21630;SDS011;10977;46.802;11.952;2022-08-23T14:02:39;1.10;;;1.10;;
21630;SDS011;10977;46.802;11.952;2022-08-23T14:05:05;1.50;;;1.40;;
21630;SDS011;10977;46.802;11.952;2022-08-23T14:07:32;1.60;;;1.50;;
21630;SDS011;10977;46.802;11.952;2022-08-23T14:09:57;1.70;;;1.60;;
21630;SDS011;10977;46.802;11.952;2022-08-23T14:12:25;1.90;;;1.80;;
21630;SDS011;10977;46.802;11.952;2022-08-23T14:14:53;2.28;;;2.17;;
21630;SDS011;10977;46.802;11.952;2022-08-23T14:17:19;2.85;;;2.70;;
21630;SDS011;10977;46.802;11.952;2022-08-23T14:19:45;3.60;;;3.30;;
21630;SDS011;10977;46.802;11.952;2022-08-23T14:22:11;3.50;;;3.30;;
21630;SDS011;10977;46.802;11.952;2022-08-23T14:24:38;3.50;;;3.30;;
21630;SDS011;10977;46.802;11.952;2022-08-23T14:27:03;4.03;;;3.80;;
21630;SDS011;10977;46.802;11.952;2022-08-23T14:29:29;4.22;;;4.03;;
21630;SDS011;10977;46.802;11.952;2022-08-23T14:31:55;4.45;;;4.20;;
21630;SDS011;10977;46.802;11.952;2022-08-23T14:34:23;5.20;;;4.90;;
21630;SDS011;10977;46.802;11.952;2022-08-23T14:36:49;5.30;;;5.00;;
21630;SDS011;10977;46.802;11.952;2022-08-23T14:39:17;4.80;;;4.50;;
21630;SDS011;10977;46.802;11.952;2022-08-23T14:41:43;5.40;;;5.10;;
21630;SDS011;10977;46.802;11.952;2022-08-23T14:44:09;5.35;;;5.05;;
21630;SDS011;10977;46.802;11.952;2022-08-23T14:46:34;4.90;;;4.60;;
21630;SDS011;10977;46.802;11.952;2022-08-23T14:49:00;9.10;;;5.03;;
21630;SDS011;10977;46.802;11.952;2022-08-23T14:51:27;4.75;;;4.55;;
21630;SDS011;10977;46.802;11.952;2022-08-23T14:53:56;4.60;;;4.40;;
21630;SDS011;10977;46.802;11.952;2022-08-23T14:56:22;4.72;;;4.43;;
21630;SDS011;10977;46.802;11.952;2022-08-23T14:58:48;4.40;;;4.13;;
21630;SDS011;10977;46.802;11.952;2022-08-23T15:01:14;4.50;;;4.20;;
21630;SDS011;10977;46.802;11.952;2022-08-23T15:03:40;3.85;;;3.65;;
21630;SDS011;10977;46.802;11.952;2022-08-23T15:06:07;3.78;;;3.58;;
21630;SDS011;10977;46.802;11.952;2022-08-23T15:08:33;3.42;;;3.22;;
21630;SDS011;10977;46.802;11.952;2022-08-23T15:10:58;3.28;;;3.08;;
21630;SDS011;10977;46.802;11.952;2022-08-23T15:13:24;3.50;;;3.30;;
21630;SDS011;10977;46.802;11.952;2022-08-23T15:15:50;2.70;;;2.60;;
21630;SDS011;10977;46.802;11.952;2022-08-23T15:18:16;3.00;;;2.80;;
21630;SDS011;10977;46.802;11.952;2022-08-23T15:20:42;2.97;;;2.78;;
21630;SDS011;10977;46.802;11.952;2022-08-23T15:23:09;2.70;;;2.50;;
21630;SDS011;10977;46.802;11.952;2022-08-23T15:25:36;2.60;;;2.40;;
21630;SDS011;10977;46.802;11.952;2022-08-23T15:28:04;4.70;;;2.50;;
21630;SDS011;10977;46.802;11.952;2022-08-23T15:30:31;2.50;;;2.30;;
21630;SDS011;10977;46.802;11.952;2022-08-23T15:32:57;2.13;;;2.03;;
21630;SDS011;10977;46.802;11.952;2022-08-23T15:35:23;2.30;;;2.10;;
21630;SDS011;10977;46.802;11.952;2022-08-23T15:37:49;1.90;;;1.80;;
21630;SDS011;10977;46.802;11.952;2022-08-23T15:40:15;1.92;;;1.83;;
21630;SDS011;10977;46.802;11.952;2022-08-23T15:42:40;1.70;;;1.60;;
21630;SDS011;10977;46.802;11.952;2022-08-23T15:45:06;1.75;;;1.65;;
21630;SDS011;10977;46.802;11.952;2022-08-23T15:47:34;1.58;;;1.48;;
21630;SDS011;10977;46.802;11.952;2022-08-23T15:50:07;1.60;;;1.50;;
21630;SDS011;10977;46.802;11.952;2022-08-23T15:52:33;1.30;;;1.30;;
21630;SDS011;10977;46.802;11.952;2022-08-23T15:54:59;1.20;;;1.20;;
21630;SDS011;10977;46.802;11.952;2022-08-23T15:57:25;1.40;;;1.30;;
21630;SDS011;10977;46.802;11.952;2022-08-23T15:59:52;1.30;;;1.20;;
21630;SDS011;10977;46.802;11.952;2022-08-23T16:02:18;1.10;;;1.10;;
21630;SDS011;10977;46.802;11.952;2022-08-23T16:04:43;0.93;;;0.93;;
21630;SDS011;10977;46.802;11.952;2022-08-23T16:07:12;0.70;;;0.70;;
21630;SDS011;10977;46.802;11.952;2022-08-23T16:09:39;0.90;;;0.90;;
21630;SDS011;10977;46.802;11.952;2022-08-23T16:12:05;1.20;;;1.00;;
21630;SDS011;10977;46.802;11.952;2022-08-23T16:14:32;1.10;;;1.00;;
21630;SDS011;10977;46.802;11.952;2022-08-23T16:16:58;1.23;;;0.77;;
21630;SDS011;10977;46.802;11.952;2022-08-23T16:19:24;0.90;;;0.70;;
21630;SDS011;10977;46.802;11.952;2022-08-23T16:21:50;0.63;;;0.63;;
21630;SDS011;10977;46.802;11.952;2022-08-23T16:24:17;1.55;;;1.45;;
21630;SDS011;10977;46.802;11.952;2022-08-23T16:26:44;1.13;;;0.98;;
21630;SDS011;10977;46.802;11.952;2022-08-23T16:29:11;1.38;;;1.17;;
21630;SDS011;10977;46.802;11.952;2022-08-23T16:31:38;1.20;;;1.00;;